sensor_id;sensor_type;location;lat;lon;timestamp;temperature;humidity
13205;DHT22;6667;52.634;9.226;2023-03-23T07:55:16;14.10;99.90
13205;DHT22;6667;52.634;9.226;2023-03-23T07:57:44;13.90;99.90
13205;DHT22;6667;52.634;9.226;2023-03-23T08:00:11;13.80;99.90
13205;DHT22;6667;52.634;9.226;2023-03-23T08:02:41;13.90;99.90
13205;DHT22;6667;52.634;9.226;2023-03-23T08:05:08;14.10;99.90
13205;DHT22;6667;52.634;9.226;2023-03-23T08:07:35;14.20;99.90
13205;DHT22;6667;52.634;9.226;2023-03-23T08:10:02;14.10;99.90
13205;DHT22;6667;52.634;9.226;2023-03-23T08:12:31;14.10;99.90
13205;DHT22;6667;52.634;9.226;2023-03-23T08:14:57;14.00;99.90
13205;DHT22;6667;52.634;9.226;2023-03-23T08:17:24;13.90;99.90
13205;DHT22;6667;52.634;9.226;2023-03-23T08:19:51;13.90;99.90
13205;DHT22;6667;52.634;9.226;2023-03-23T08:22:18;13.90;99.90
13205;DHT22;6667;52.634;9.226;2023-03-23T08:24:46;13.90;99.90
13205;DHT22;6667;52.634;9.226;2023-03-23T08:27:14;14.00;99.90
13205;DHT22;6667;52.634;9.226;2023-03-23T08:29:44;14.00;99.90
13205;DHT22;6667;52.634;9.226;2023-03-23T08:32:11;14.00;99.90
13205;DHT22;6667;52.634;9.226;2023-03-23T08:34:38;14.00;99.90
13205;DHT22;6667;52.634;9.226;2023-03-23T08:37:04;13.90;99.90
13205;DHT22;6667;52.634;9.226;2023-03-23T08:39:31;13.90;99.90
13205;DHT22;6667;52.634;9.226;2023-03-23T08:41:59;13.90;99.90
13205;DHT22;6667;52.634;9.226;2023-03-23T08:44:26;13.90;99.90
13205;DHT22;6667;52.634;9.226;2023-03-23T08:46:55;14.00;99.90
13205;DHT22;6667;52.634;9.226;2023-03-23T08:49:22;14.00;99.90
13205;DHT22;6667;52.634;9.226;2023-03-23T08:51:49;13.90;99.90
13205;DHT22;6667;52.634;9.226;2023-03-23T08:54:16;13.90;99.90
13205;DHT22;6667;52.634;9.226;2023-03-23T08:56:44;13.80;99.90
13205;DHT22;6667;52.634;9.226;2023-03-23T08:59:12;13.80;99.90
13205;DHT22;6667;52.634;9.226;2023-03-23T09:01:38;13.80;99.90
13205;DHT22;6667;52.634;9.226;2023-03-23T09:04:07;13.80;99.90
13205;DHT22;6667;52.634;9.226;2023-03-23T09:06:34;13.80;99.90
13205;DHT22;6667;52.634;9.226;2023-03-23T09:09:02;13.80;99.90
13205;DHT22;6667;52.634;9.226;2023-03-23T09:11:32;13.80;99.90
13205;DHT22;6667;52.634;9.226;2023-03-23T09:13:59;13.90;99.90
13205;DHT22;6667;52.634;9.226;2023-03-23T09:16:26;13.80;99.90
13205;DHT22;6667;52.634;9.226;2023-03-23T09:18:53;13.70;99.90
13205;DHT22;6667;52.634;9.226;2023-03-23T09:21:23;13.60;99.90
13205;DHT22;6667;52.634;9.226;2023-03-23T09:23:51;13.50;99.90
13205;DHT22;6667;52.634;9.226;2023-03-23T09:26:18;13.40;99.90
13205;DHT22;6667;52.634;9.226;2023-03-23T09:28:45;13.20;99.90
13205;DHT22;6667;52.634;9.226;2023-03-23T09:31:12;13.10;99.90
13205;DHT22;6667;52.634;9.226;2023-03-23T09:33:39;13.10;99.90
13205;DHT22;6667;52.634;9.226;2023-03-23T09:36:06;13.20;99.90
13205;DHT22;6667;52.634;9.226;2023-03-23T09:38:39;13.20;99.90
13205;DHT22;6667;52.634;9.226;2023-03-23T09:41:14;13.30;99.90
13205;DHT22;6667;52.634;9.226;2023-03-23T09:43:53;13.30;99.90
13205;DHT22;6667;52.634;9.226;2023-03-23T09:46:39;13.30;99.90
13205;DHT22;6667;52.634;9.226;2023-03-23T09:49:10;13.30;99.90
13205;DHT22;6667;52.634;9.226;2023-03-23T09:51:42;13.20;99.90
13205;DHT22;6667;52.634;9.226;2023-03-23T09:54:18;13.00;99.90
13205;DHT22;6667;52.634;9.226;2023-03-23T09:56:46;12.60;99.90
13205;DHT22;6667;52.634;9.226;2023-03-23T09:59:19;12.40;99.90
13205;DHT22;6667;52.634;9.226;2023-03-23T10:01:48;12.10;99.90
13205;DHT22;6667;52.634;9.226;2023-03-23T10:04:25;12.00;99.90
13205;DHT22;6667;52.634;9.226;2023-03-23T10:06:57;11.90;99.90
13205;DHT22;6667;52.634;9.226;2023-03-23T10:09:28;11.90;99.90
13205;DHT22;6667;52.634;9.226;2023-03-23T10:12:02;11.80;99.90
13205;DHT22;6667;52.634;9.226;2023-03-23T10:14:52;11.60;99.90
13205;DHT22;6667;52.634;9.226;2023-03-23T10:17:27;11.40;99.90
13205;DHT22;6667;52.634;9.226;2023-03-23T10:20:04;11.40;99.90
13205;DHT22;6667;52.634;9.226;2023-03-23T10:22:40;11.40;99.90
13205;DHT22;6667;52.634;9.226;2023-03-23T10:25:16;11.40;99.90
13205;DHT22;6667;52.634;9.226;2023-03-23T10:27:49;11.30;99.90
13205;DHT22;6667;52.634;9.226;2023-03-23T10:30:21;11.30;99.90
13205;DHT22;6667;52.634;9.226;2023-03-23T10:32:52;11.20;99.90
13205;DHT22;6667;52.634;9.226;2023-03-23T10:35:24;11.30;99.90
13205;DHT22;6667;52.634;9.226;2023-03-23T10:37:55;11.40;99.90
13205;DHT22;6667;52.634;9.226;2023-03-23T10:40:27;11.30;99.90
13205;DHT22;6667;52.634;9.226;2023-03-23T10:42:55;11.30;99.90
13205;DHT22;6667;52.634;9.226;2023-03-23T10:45:25;11.20;99.90
13205;DHT22;6667;52.634;9.226;2023-03-23T10:47:56;11.20;99.90
13205;DHT22;6667;52.634;9.226;2023-03-23T10:50:29;11.20;99.90
13205;DHT22;6667;52.634;9.226;2023-03-23T10:52:58;11.30;99.90
13205;DHT22;6667;52.634;9.226;2023-03-23T10:55:37;11.50;99.90
13205;DHT22;6667;52.634;9.226;2023-03-23T10:58:06;11.70;99.90
13205;DHT22;6667;52.634;9.226;2023-03-23T11:00:33;11.90;99.90
13205;DHT22;6667;52.634;9.226;2023-03-23T11:03:24;12.00;99.90
13205;DHT22;6667;52.634;9.226;2023-03-23T11:05:53;12.00;99.90
13205;DHT22;6667;52.634;9.226;2023-03-23T11:08:24;12.00;99.90
13205;DHT22;6667;52.634;9.226;2023-03-23T11:10:55;12.10;99.90
13205;DHT22;6667;52.634;9.226;2023-03-23T11:13:28;12.10;99.90
13205;DHT22;6667;52.634;9.226;2023-03-23T11:15:56;12.10;99.90
13205;DHT22;6667;52.634;9.226;2023-03-23T11:18:35;12.10;99.90
13205;DHT22;6667;52.634;9.226;2023-03-23T11:21:05;12.00;99.90
13205;DHT22;6667;52.634;9.226;2023-03-23T11:23:33;12.10;99.90
13205;DHT22;6667;52.634;9.226;2023-03-23T11:26:08;12.10;99.90
13205;DHT22;6667;52.634;9.226;2023-03-23T11:28:41;12.10;99.90
13205;DHT22;6667;52.634;9.226;2023-03-23T11:31:09;12.10;99.90
13205;DHT22;6667;52.634;9.226;2023-03-23T11:33:38;12.00;99.90
13205;DHT22;6667;52.634;9.226;2023-03-23T11:36:06;11.90;99.90
13205;DHT22;6667;52.634;9.226;2023-03-23T11:38:34;11.80;99.90
13205;DHT22;6667;52.634;9.226;2023-03-23T11:41:09;11.80;99.90
13205;DHT22;6667;52.634;9.226;2023-03-23T11:43:40;11.80;99.90
13205;DHT22;6667;52.634;9.226;2023-03-23T11:46:13;11.80;99.90
13205;DHT22;6667;52.634;9.226;2023-03-23T11:48:47;11.80;99.90
13205;DHT22;6667;52.634;9.226;2023-03-23T11:51:19;11.90;99.90
13205;DHT22;6667;52.634;9.226;2023-03-23T11:53:50;12.00;99.90
13205;DHT22;6667;52.634;9.226;2023-03-23T11:56:25;12.00;99.90
13205;DHT22;6667;52.634;9.226;2023-03-23T11:58:53;12.10;99.90
13205;DHT22;6667;52.634;9.226;2023-03-23T12:01:32;12.30;99.90
13205;DHT22;6667;52.634;9.226;2023-03-23T12:04:26;12.50;99.90
13205;DHT22;6667;52.634;9.226;2023-03-23T12:06:59;12.40;99.90
13205;DHT22;6667;52.634;9.226;2023-03-23T12:09:38;12.40;99.90
13205;DHT22;6667;52.634;9.226;2023-03-23T12:12:14;12.50;99.90
13205;DHT22;6667;52.634;9.226;2023-03-23T12:14:50;12.60;99.90
13205;DHT22;6667;52.634;9.226;2023-03-23T12:17:27;12.50;99.90
13205;DHT22;6667;52.634;9.226;2023-03-23T12:20:06;12.50;99.90
13205;DHT22;6667;52.634;9.226;2023-03-23T12:22:47;12.40;99.90
13205;DHT22;6667;52.634;9.226;2023-03-23T12:25:31;12.30;99.90
13205;DHT22;6667;52.634;9.226;2023-03-23T12:28:07;12.30;99.90
13205;DHT22;6667;52.634;9.226;2023-03-23T12:30:43;12.30;99.90
13205;DHT22;6667;52.634;9.226;2023-03-23T12:33:19;12.30;99.90
13205;DHT22;6667;52.634;9.226;2023-03-23T12:35:57;12.30;99.90
13205;DHT22;6667;52.634;9.226;2023-03-23T12:38:42;12.30;99.90
13205;DHT22;6667;52.634;9.226;2023-03-23T12:41:16;12.20;99.90
13205;DHT22;6667;52.634;9.226;2023-03-23T12:43:53;12.20;99.90
13205;DHT22;6667;52.634;9.226;2023-03-23T12:46:52;12.20;99.90
13205;DHT22;6667;52.634;9.226;2023-03-23T12:49:26;12.30;99.90
13205;DHT22;6667;52.634;9.226;2023-03-23T12:51:57;12.30;99.90
13205;DHT22;6667;52.634;9.226;2023-03-23T12:54:32;12.40;99.90
13205;DHT22;6667;52.634;9.226;2023-03-23T12:57:06;12.40;99.90
13205;DHT22;6667;52.634;9.226;2023-03-23T12:59:40;12.50;99.90
13205;DHT22;6667;52.634;9.226;2023-03-23T13:02:17;12.50;99.90
13205;DHT22;6667;52.634;9.226;2023-03-23T13:04:48;12.60;99.90
13205;DHT22;6667;52.634;9.226;2023-03-23T13:07:20;12.60;99.90
13205;DHT22;6667;52.634;9.226;2023-03-23T13:09:52;12.70;99.90
13205;DHT22;6667;52.634;9.226;2023-03-23T13:12:21;12.60;99.90
13205;DHT22;6667;52.634;9.226;2023-03-23T13:14:58;12.70;99.90
13205;DHT22;6667;52.634;9.226;2023-03-23T13:17:34;12.80;99.90
13205;DHT22;6667;52.634;9.226;2023-03-23T13:23:01;12.80;99.90
13205;DHT22;6667;52.634;9.226;2023-03-23T13:25:45;12.90;99.90
13205;DHT22;6667;52.634;9.226;2023-03-23T13:28:15;12.80;99.90
13205;DHT22;6667;52.634;9.226;2023-03-23T13:30:58;12.80;99.90
13205;DHT22;6667;52.634;9.226;2023-03-23T13:33:29;12.80;99.90
13205;DHT22;6667;52.634;9.226;2023-03-23T13:35:57;12.80;99.90
13205;DHT22;6667;52.634;9.226;2023-03-23T13:38:31;12.90;99.90
13205;DHT22;6667;52.634;9.226;2023-03-23T13:41:06;13.00;99.90
13205;DHT22;6667;52.634;9.226;2023-03-23T13:43:36;13.10;99.90
13205;DHT22;6667;52.634;9.226;2023-03-23T13:46:12;13.30;99.90
13205;DHT22;6667;52.634;9.226;2023-03-23T13:48:41;13.30;99.90
13205;DHT22;6667;52.634;9.226;2023-03-23T13:51:26;13.30;99.90
13205;DHT22;6667;52.634;9.226;2023-03-23T13:54:06;13.50;99.90
13205;DHT22;6667;52.634;9.226;2023-03-23T13:56:36;13.70;99.90
13205;DHT22;6667;52.634;9.226;2023-03-23T13:59:07;13.90;99.90
13205;DHT22;6667;52.634;9.226;2023-03-23T14:01:37;14.00;99.90
13205;DHT22;6667;52.634;9.226;2023-03-23T14:04:10;14.20;99.90
13205;DHT22;6667;52.634;9.226;2023-03-23T14:06:37;14.30;99.90
13205;DHT22;6667;52.634;9.226;2023-03-23T14:09:06;14.20;99.90
13205;DHT22;6667;52.634;9.226;2023-03-23T14:11:46;13.90;99.90
13205;DHT22;6667;52.634;9.226;2023-03-23T14:14:17;13.90;99.90
13205;DHT22;6667;52.634;9.226;2023-03-23T14:16:48;13.80;99.90
13205;DHT22;6667;52.634;9.226;2023-03-23T14:19:19;13.90;99.90
13205;DHT22;6667;52.634;9.226;2023-03-23T14:21:51;13.90;99.90
13205;DHT22;6667;52.634;9.226;2023-03-23T14:24:21;14.00;99.90
13205;DHT22;6667;52.634;9.226;2023-03-23T14:26:49;13.90;99.90
13205;DHT22;6667;52.634;9.226;2023-03-23T14:29:18;13.90;99.90
13205;DHT22;6667;52.634;9.226;2023-03-23T14:31:50;14.00;99.90
13205;DHT22;6667;52.634;9.226;2023-03-23T14:34:20;14.20;99.90
13205;DHT22;6667;52.634;9.226;2023-03-23T14:36:48;14.30;99.90
13205;DHT22;6667;52.634;9.226;2023-03-23T14:39:19;14.10;99.90
13205;DHT22;6667;52.634;9.226;2023-03-23T14:41:47;14.20;99.90
13205;DHT22;6667;52.634;9.226;2023-03-23T14:44:17;14.30;99.90
13205;DHT22;6667;52.634;9.226;2023-03-23T14:46:46;14.20;99.90
13205;DHT22;6667;52.634;9.226;2023-03-23T14:49:15;14.20;99.90
13205;DHT22;6667;52.634;9.226;2023-03-23T14:51:50;14.30;99.90
13205;DHT22;6667;52.634;9.226;2023-03-23T14:54:21;14.30;99.90
13205;DHT22;6667;52.634;9.226;2023-03-23T14:56:48;14.20;99.90
13205;DHT22;6667;52.634;9.226;2023-03-23T14:59:15;14.10;99.90
13205;DHT22;6667;52.634;9.226;2023-03-23T15:01:42;14.10;99.90
13205;DHT22;6667;52.634;9.226;2023-03-23T15:04:14;14.10;99.90
13205;DHT22;6667;52.634;9.226;2023-03-23T15:06:46;14.10;99.90
13205;DHT22;6667;52.634;9.226;2023-03-23T15:09:16;14.20;99.90
13205;DHT22;6667;52.634;9.226;2023-03-23T15:11:52;14.20;99.90
13205;DHT22;6667;52.634;9.226;2023-03-23T15:14:21;14.20;99.90
13205;DHT22;6667;52.634;9.226;2023-03-23T15:16:50;14.20;99.90
13205;DHT22;6667;52.634;9.226;2023-03-23T15:19:22;14.20;99.90
13205;DHT22;6667;52.634;9.226;2023-03-23T15:21:52;14.20;99.90
13205;DHT22;6667;52.634;9.226;2023-03-23T15:24:31;14.00;99.90
13205;DHT22;6667;52.634;9.226;2023-03-23T15:27:10;14.00;99.90
13205;DHT22;6667;52.634;9.226;2023-03-23T15:29:46;13.90;99.90
13205;DHT22;6667;52.634;9.226;2023-03-23T15:32:20;13.90;99.90
13205;DHT22;6667;52.634;9.226;2023-03-23T15:34:48;13.90;99.90
13205;DHT22;6667;52.634;9.226;2023-03-23T15:37:20;13.80;99.90
13205;DHT22;6667;52.634;9.226;2023-03-23T15:39:47;13.80;99.90
13205;DHT22;6667;52.634;9.226;2023-03-23T15:42:26;13.80;99.90
13205;DHT22;6667;52.634;9.226;2023-03-23T15:45:16;13.80;99.90
13205;DHT22;6667;52.634;9.226;2023-03-23T15:47:48;13.70;99.90
13205;DHT22;6667;52.634;9.226;2023-03-23T15:50:18;13.70;99.90
13205;DHT22;6667;52.634;9.226;2023-03-23T15:52:45;13.70;99.90
13205;DHT22;6667;52.634;9.226;2023-03-23T15:55:23;13.70;99.90
13205;DHT22;6667;52.634;9.226;2023-03-23T15:57:51;13.70;99.90
13205;DHT22;6667;52.634;9.226;2023-03-23T16:00:20;13.60;99.90
13205;DHT22;6667;52.634;9.226;2023-03-23T16:02:52;13.60;99.90
13205;DHT22;6667;52.634;9.226;2023-03-23T16:05:20;13.50;99.90
13205;DHT22;6667;52.634;9.226;2023-03-23T16:07:47;13.40;99.90
13205;DHT22;6667;52.634;9.226;2023-03-23T16:10:16;13.30;99.90
13205;DHT22;6667;52.634;9.226;2023-03-23T16:12:43;13.20;99.90
13205;DHT22;6667;52.634;9.226;2023-03-23T16:15:11;13.20;99.90
13205;DHT22;6667;52.634;9.226;2023-03-23T16:17:38;13.10;99.90
13205;DHT22;6667;52.634;9.226;2023-03-23T16:20:10;13.10;99.90
13205;DHT22;6667;52.634;9.226;2023-03-23T16:22:39;13.10;99.90
13205;DHT22;6667;52.634;9.226;2023-03-23T16:25:07;13.00;99.90
13205;DHT22;6667;52.634;9.226;2023-03-23T16:27:35;13.00;99.90
13205;DHT22;6667;52.634;9.226;2023-03-23T16:30:07;13.00;99.90
13205;DHT22;6667;52.634;9.226;2023-03-23T16:32:35;13.00;99.90
13205;DHT22;6667;52.634;9.226;2023-03-23T16:35:02;13.00;99.90
13205;DHT22;6667;52.634;9.226;2023-03-23T16:37:28;13.00;99.90
13205;DHT22;6667;52.634;9.226;2023-03-23T16:39:59;13.00;99.90
13205;DHT22;6667;52.634;9.226;2023-03-23T16:42:26;13.00;99.90
13205;DHT22;6667;52.634;9.226;2023-03-23T16:44:52;12.90;99.90
13205;DHT22;6667;52.634;9.226;2023-03-23T16:47:20;12.90;99.90
13205;DHT22;6667;52.634;9.226;2023-03-23T16:49:47;12.90;99.90
13205;DHT22;6667;52.634;9.226;2023-03-23T16:52:15;12.90;99.90
13205;DHT22;6667;52.634;9.226;2023-03-23T16:54:42;12.80;99.90
13205;DHT22;6667;52.634;9.226;2023-03-23T16:57:11;12.80;99.90
13205;DHT22;6667;52.634;9.226;2023-03-23T16:59:37;12.80;99.90
13205;DHT22;6667;52.634;9.226;2023-03-23T17:02:04;12.80;99.90
13205;DHT22;6667;52.634;9.226;2023-03-23T17:04:32;12.70;99.90
13205;DHT22;6667;52.634;9.226;2023-03-23T17:06:59;12.70;99.90
13205;DHT22;6667;52.634;9.226;2023-03-23T17:09:26;12.60;99.90
13205;DHT22;6667;52.634;9.226;2023-03-23T17:11:53;12.60;99.90
13205;DHT22;6667;52.634;9.226;2023-03-23T17:14:21;12.50;99.90
13205;DHT22;6667;52.634;9.226;2023-03-23T17:16:47;12.50;99.90
13205;DHT22;6667;52.634;9.226;2023-03-23T17:19:14;12.50;99.90
13205;DHT22;6667;52.634;9.226;2023-03-23T17:21:41;12.40;99.90
13205;DHT22;6667;52.634;9.226;2023-03-23T17:24:08;12.20;99.90
13205;DHT22;6667;52.634;9.226;2023-03-23T17:26:35;12.10;99.90
13205;DHT22;6667;52.634;9.226;2023-03-23T17:29:02;12.00;99.90
13205;DHT22;6667;52.634;9.226;2023-03-23T17:31:30;11.90;99.90
13205;DHT22;6667;52.634;9.226;2023-03-23T17:33:57;11.90;99.90
13205;DHT22;6667;52.634;9.226;2023-03-23T17:36:24;11.90;99.90
13205;DHT22;6667;52.634;9.226;2023-03-23T17:38:51;11.90;99.90
13205;DHT22;6667;52.634;9.226;2023-03-23T17:41:17;11.90;99.90
13205;DHT22;6667;52.634;9.226;2023-03-23T17:43:46;11.70;99.90
13205;DHT22;6667;52.634;9.226;2023-03-23T17:46:13;11.70;99.90
13205;DHT22;6667;52.634;9.226;2023-03-23T17:48:41;11.60;99.90
13205;DHT22;6667;52.634;9.226;2023-03-23T17:51:07;11.50;99.90
13205;DHT22;6667;52.634;9.226;2023-03-23T17:53:34;11.50;99.90
13205;DHT22;6667;52.634;9.226;2023-03-23T17:56:02;11.50;99.90
13205;DHT22;6667;52.634;9.226;2023-03-23T17:58:29;11.50;99.90
13205;DHT22;6667;52.634;9.226;2023-03-23T18:00:56;11.40;99.90
13205;DHT22;6667;52.634;9.226;2023-03-23T18:03:24;11.30;99.90
13205;DHT22;6667;52.634;9.226;2023-03-23T18:05:57;11.30;99.90
13205;DHT22;6667;52.634;9.226;2023-03-23T18:08:24;11.30;99.90
13205;DHT22;6667;52.634;9.226;2023-03-23T18:10:53;11.30;99.90
13205;DHT22;6667;52.634;9.226;2023-03-23T18:13:20;11.30;99.90
13205;DHT22;6667;52.634;9.226;2023-03-23T18:15:47;11.30;99.90
13205;DHT22;6667;52.634;9.226;2023-03-23T18:18:14;11.30;99.90
13205;DHT22;6667;52.634;9.226;2023-03-23T18:20:41;11.30;99.90
13205;DHT22;6667;52.634;9.226;2023-03-23T18:23:09;11.30;99.90
13205;DHT22;6667;52.634;9.226;2023-03-23T18:25:36;11.20;99.90
13205;DHT22;6667;52.634;9.226;2023-03-23T18:28:03;11.20;99.90
13205;DHT22;6667;52.634;9.226;2023-03-23T18:30:31;11.20;99.90
13205;DHT22;6667;52.634;9.226;2023-03-23T18:32:58;11.10;99.90
13205;DHT22;6667;52.634;9.226;2023-03-23T18:35:25;11.10;99.90
13205;DHT22;6667;52.634;9.226;2023-03-23T18:37:51;11.10;99.90
13205;DHT22;6667;52.634;9.226;2023-03-23T18:40:19;11.00;99.90
13205;DHT22;6667;52.634;9.226;2023-03-23T18:42:46;11.00;99.90
13205;DHT22;6667;52.634;9.226;2023-03-23T18:45:13;11.00;99.90
13205;DHT22;6667;52.634;9.226;2023-03-23T18:47:40;11.00;99.90
13205;DHT22;6667;52.634;9.226;2023-03-23T18:50:09;10.90;99.90
13205;DHT22;6667;52.634;9.226;2023-03-23T18:52:36;10.90;99.90
13205;DHT22;6667;52.634;9.226;2023-03-23T18:55:03;10.90;99.90
13205;DHT22;6667;52.634;9.226;2023-03-23T18:57:31;10.90;99.90
13205;DHT22;6667;52.634;9.226;2023-03-23T18:59:58;10.80;99.90
13205;DHT22;6667;52.634;9.226;2023-03-23T19:02:25;10.80;99.90
13205;DHT22;6667;52.634;9.226;2023-03-23T19:04:54;10.80;99.90
13205;DHT22;6667;52.634;9.226;2023-03-23T19:07:21;10.70;99.90
13205;DHT22;6667;52.634;9.226;2023-03-23T19:09:48;10.70;99.90
13205;DHT22;6667;52.634;9.226;2023-03-23T19:12:15;10.70;99.90
13205;DHT22;6667;52.634;9.226;2023-03-23T19:14:43;10.70;99.90
13205;DHT22;6667;52.634;9.226;2023-03-23T19:17:10;10.60;99.90
13205;DHT22;6667;52.634;9.226;2023-03-23T19:19:36;10.60;99.90
13205;DHT22;6667;52.634;9.226;2023-03-23T19:22:05;10.50;99.90
13205;DHT22;6667;52.634;9.226;2023-03-23T19:24:33;10.50;99.90
13205;DHT22;6667;52.634;9.226;2023-03-23T19:27:00;10.40;99.90
13205;DHT22;6667;52.634;9.226;2023-03-23T19:29:27;10.40;99.90
13205;DHT22;6667;52.634;9.226;2023-03-23T19:31:56;10.40;99.90
13205;DHT22;6667;52.634;9.226;2023-03-23T19:34:24;10.40;99.90
13205;DHT22;6667;52.634;9.226;2023-03-23T19:36:51;10.40;99.90
13205;DHT22;6667;52.634;9.226;2023-03-23T19:39:17;10.40;99.90
13205;DHT22;6667;52.634;9.226;2023-03-23T19:41:44;10.40;99.90
13205;DHT22;6667;52.634;9.226;2023-03-23T19:44:11;10.50;99.90
13205;DHT22;6667;52.634;9.226;2023-03-23T19:46:38;10.50;99.90
13205;DHT22;6667;52.634;9.226;2023-03-23T19:49:06;10.40;99.90
13205;DHT22;6667;52.634;9.226;2023-03-23T19:51:33;10.40;99.90
13205;DHT22;6667;52.634;9.226;2023-03-23T19:54:09;10.40;99.90
13205;DHT22;6667;52.634;9.226;2023-03-23T19:56:44;10.30;99.90
13205;DHT22;6667;52.634;9.226;2023-03-23T19:59:12;10.30;99.90
13205;DHT22;6667;52.634;9.226;2023-03-23T20:01:41;10.20;99.90
13205;DHT22;6667;52.634;9.226;2023-03-23T20:04:10;10.20;99.90
13205;DHT22;6667;52.634;9.226;2023-03-23T20:06:37;10.20;99.90
13205;DHT22;6667;52.634;9.226;2023-03-23T20:09:04;10.20;99.90
13205;DHT22;6667;52.634;9.226;2023-03-23T20:11:32;10.20;99.90
13205;DHT22;6667;52.634;9.226;2023-03-23T20:13:58;10.10;99.90
13205;DHT22;6667;52.634;9.226;2023-03-23T20:16:26;10.10;99.90
13205;DHT22;6667;52.634;9.226;2023-03-23T20:18:53;10.10;99.90
13205;DHT22;6667;52.634;9.226;2023-03-23T20:21:22;10.10;99.90
13205;DHT22;6667;52.634;9.226;2023-03-23T20:23:51;10.20;99.90
13205;DHT22;6667;52.634;9.226;2023-03-23T20:26:20;10.30;99.90
13205;DHT22;6667;52.634;9.226;2023-03-23T20:28:47;10.30;99.90
13205;DHT22;6667;52.634;9.226;2023-03-23T20:31:15;10.40;99.90
13205;DHT22;6667;52.634;9.226;2023-03-23T20:33:43;10.40;99.90
13205;DHT22;6667;52.634;9.226;2023-03-23T20:36:11;10.30;99.90
13205;DHT22;6667;52.634;9.226;2023-03-23T20:38:40;10.40;99.90
13205;DHT22;6667;52.634;9.226;2023-03-23T20:41:08;10.40;99.90
13205;DHT22;6667;52.634;9.226;2023-03-23T20:43:37;10.40;99.90
13205;DHT22;6667;52.634;9.226;2023-03-23T20:46:05;10.40;99.90
13205;DHT22;6667;52.634;9.226;2023-03-23T20:48:34;10.50;99.90
13205;DHT22;6667;52.634;9.226;2023-03-23T20:51:04;10.50;99.90
13205;DHT22;6667;52.634;9.226;2023-03-23T20:53:33;10.50;99.90
13205;DHT22;6667;52.634;9.226;2023-03-23T20:56:03;10.50;99.90
13205;DHT22;6667;52.634;9.226;2023-03-23T20:58:32;10.60;99.90
13205;DHT22;6667;52.634;9.226;2023-03-23T21:01:00;10.60;99.90
13205;DHT22;6667;52.634;9.226;2023-03-23T21:03:35;10.60;99.90
13205;DHT22;6667;52.634;9.226;2023-03-23T21:06:03;10.60;99.90
13205;DHT22;6667;52.634;9.226;2023-03-23T21:08:32;10.60;99.90
13205;DHT22;6667;52.634;9.226;2023-03-23T21:11:02;10.70;99.90
13205;DHT22;6667;52.634;9.226;2023-03-23T21:13:29;10.70;99.90
13205;DHT22;6667;52.634;9.226;2023-03-23T21:15:56;10.70;99.90
13205;DHT22;6667;52.634;9.226;2023-03-23T21:18:23;10.70;99.90
13205;DHT22;6667;52.634;9.226;2023-03-23T21:20:50;10.80;99.90
13205;DHT22;6667;52.634;9.226;2023-03-23T21:23:17;10.80;99.90
13205;DHT22;6667;52.634;9.226;2023-03-23T21:25:45;10.90;99.90
13205;DHT22;6667;52.634;9.226;2023-03-23T21:28:13;10.90;99.90
13205;DHT22;6667;52.634;9.226;2023-03-23T21:30:41;11.00;99.90
13205;DHT22;6667;52.634;9.226;2023-03-23T21:33:10;11.00;99.90
13205;DHT22;6667;52.634;9.226;2023-03-23T21:35:38;11.10;99.90
13205;DHT22;6667;52.634;9.226;2023-03-23T21:38:06;11.10;99.90
13205;DHT22;6667;52.634;9.226;2023-03-23T21:40:39;11.20;99.90
13205;DHT22;6667;52.634;9.226;2023-03-23T21:43:07;11.10;99.90
13205;DHT22;6667;52.634;9.226;2023-03-23T21:45:41;11.10;99.90
13205;DHT22;6667;52.634;9.226;2023-03-23T21:48:08;11.10;99.90
13205;DHT22;6667;52.634;9.226;2023-03-23T21:50:35;11.10;99.90
13205;DHT22;6667;52.634;9.226;2023-03-23T21:53:04;11.20;99.90
13205;DHT22;6667;52.634;9.226;2023-03-23T21:55:31;11.10;99.90
13205;DHT22;6667;52.634;9.226;2023-03-23T21:57:59;11.20;99.90
13205;DHT22;6667;52.634;9.226;2023-03-23T22:00:27;11.20;99.90
13205;DHT22;6667;52.634;9.226;2023-03-23T22:02:55;11.20;99.90
13205;DHT22;6667;52.634;9.226;2023-03-23T22:05:22;11.20;99.90
13205;DHT22;6667;52.634;9.226;2023-03-23T22:07:50;11.30;99.90
13205;DHT22;6667;52.634;9.226;2023-03-23T22:10:18;11.30;99.90
13205;DHT22;6667;52.634;9.226;2023-03-23T22:12:45;11.30;99.90
13205;DHT22;6667;52.634;9.226;2023-03-23T22:15:14;11.30;99.90
13205;DHT22;6667;52.634;9.226;2023-03-23T22:17:42;11.30;99.90
13205;DHT22;6667;52.634;9.226;2023-03-23T22:20:12;11.30;99.90
13205;DHT22;6667;52.634;9.226;2023-03-23T22:22:39;11.30;99.90
13205;DHT22;6667;52.634;9.226;2023-03-23T22:25:06;11.30;99.90
13205;DHT22;6667;52.634;9.226;2023-03-23T22:27:33;11.40;99.90
13205;DHT22;6667;52.634;9.226;2023-03-23T22:30:00;11.40;99.90
13205;DHT22;6667;52.634;9.226;2023-03-23T22:32:27;11.40;99.90
13205;DHT22;6667;52.634;9.226;2023-03-23T22:34:54;11.40;99.90
13205;DHT22;6667;52.634;9.226;2023-03-23T22:37:22;11.40;99.90
13205;DHT22;6667;52.634;9.226;2023-03-23T22:39:49;11.50;99.90
13205;DHT22;6667;52.634;9.226;2023-03-23T22:42:16;11.50;99.90
13205;DHT22;6667;52.634;9.226;2023-03-23T22:44:42;11.40;99.90
13205;DHT22;6667;52.634;9.226;2023-03-23T22:47:09;11.50;99.90
13205;DHT22;6667;52.634;9.226;2023-03-23T22:49:36;11.50;99.90
13205;DHT22;6667;52.634;9.226;2023-03-23T22:52:03;11.50;99.90
